Terminal Aerodrome Forecast
Issued by NWS Midland/Odessa, TX

Home | Current Version | Previous Version | Text Only | Print | Product List | Glossary On
Versions: 1 2 3 4 5 6 7 8 9 10 11 12 13 14 15 16 17 18 19 20 21 22
000
FTUS44 KMAF 071736
TAFMAF
TAF
KMAF 071736Z 0718/0818 21009KT P6SM OVC130
     FM080200 04021G31KT 5SM BR OVC010
     FM081200 04020G27KT 4SM -SN OVC015=

USA.gov is the U.S. government's official web portal to all federal, state and local government web resources and services.